createdAt,value
2019-03-26T00:00:16.097Z,34.90
2019-03-26T00:03:31.472Z,34.20
2019-03-26T00:06:47.163Z,34.70
2019-03-26T00:10:03.154Z,34.70
2019-03-26T00:13:19.342Z,34.70
2019-03-26T00:16:35.423Z,35.30
2019-03-26T00:19:51.361Z,34.90
2019-03-26T00:23:07.327Z,34.70
2019-03-26T00:26:22.535Z,35.30
2019-03-26T00:29:37.724Z,34.90
2019-03-26T00:32:51.351Z,34.90
2019-03-26T00:36:06.566Z,35.00
2019-03-26T00:39:22.517Z,34.80
2019-03-26T00:42:37.711Z,34.90
2019-03-26T00:45:51.363Z,34.80
2019-03-26T00:49:14.055Z,34.90
2019-03-26T00:52:29.946Z,34.70
2019-03-26T00:55:46.060Z,35.00
2019-03-26T00:58:59.636Z,34.80
2019-03-26T01:02:15.489Z,35.00
2019-03-26T01:05:31.354Z,34.70
2019-03-26T01:08:46.578Z,34.80
2019-03-26T01:12:02.369Z,35.00
2019-03-26T01:15:17.541Z,35.00
2019-03-26T01:18:33.464Z,35.00
2019-03-26T01:21:49.498Z,34.90
2019-03-26T01:25:05.300Z,35.00
2019-03-26T01:28:20.962Z,35.00
2019-03-26T01:31:36.881Z,35.00
2019-03-26T01:34:52.618Z,35.10
2019-03-26T01:38:08.327Z,34.80
2019-03-26T01:41:24.176Z,35.00
2019-03-26T01:44:40.282Z,34.80
2019-03-26T01:47:56.341Z,34.80
2019-03-26T01:51:12.463Z,34.80
2019-03-26T01:54:28.429Z,34.90
2019-03-26T01:57:44.248Z,34.80
2019-03-26T02:01:00.296Z,35.00
2019-03-26T02:04:15.948Z,34.80
2019-03-26T02:07:31.557Z,34.80
2019-03-26T02:10:47.512Z,35.60
2019-03-26T02:14:03.263Z,35.00
2019-03-26T02:17:19.185Z,34.80
2019-03-26T02:20:34.394Z,34.90
2019-03-26T02:23:48.033Z,34.70
2019-03-26T02:27:03.777Z,34.70
2019-03-26T02:30:19.730Z,35.00
2019-03-26T02:33:35.015Z,34.90
2019-03-26T02:36:50.957Z,34.80
2019-03-26T02:40:06.642Z,35.00
2019-03-26T02:43:22.709Z,35.00
2019-03-26T02:46:38.682Z,34.80
2019-03-26T02:49:54.878Z,34.90
2019-03-26T02:53:10.871Z,34.90
2019-03-26T02:56:26.218Z,34.80
2019-03-26T02:59:42.283Z,35.00
2019-03-26T03:02:55.842Z,34.80
2019-03-26T03:06:11.860Z,34.90
2019-03-26T03:09:27.828Z,35.00
2019-03-26T03:12:43.390Z,35.00
2019-03-26T03:15:59.175Z,35.00
2019-03-26T03:19:16.156Z,34.80
2019-03-26T03:22:31.980Z,35.00
2019-03-26T03:29:11.418Z,34.90
2019-03-26T03:32:27.154Z,35.00
2019-03-26T03:35:52.220Z,35.00
2019-03-26T03:39:00.629Z,35.00
2019-03-26T03:42:16.597Z,35.00
2019-03-26T03:45:32.290Z,35.00
2019-03-26T03:48:45.914Z,34.90
2019-03-26T03:52:01.555Z,34.80
2019-03-26T03:55:17.691Z,35.00
2019-03-26T03:58:33.759Z,34.80
2019-03-26T04:01:49.742Z,35.00
2019-03-26T04:05:05.757Z,34.90
2019-03-26T04:08:21.659Z,35.00
2019-03-26T04:11:37.706Z,34.80
2019-03-26T04:14:53.559Z,35.00
2019-03-26T04:18:09.163Z,35.00
2019-03-26T04:21:25.224Z,34.80
2019-03-26T04:24:40.921Z,34.90
2019-03-26T04:27:56.253Z,35.00
2019-03-26T04:31:12.372Z,34.80
2019-03-26T04:34:28.038Z,34.80
2019-03-26T04:37:44.113Z,35.00
2019-03-26T04:40:59.326Z,35.00
2019-03-26T04:44:14.963Z,34.90
2019-03-26T04:47:30.954Z,35.00
2019-03-26T04:50:46.163Z,35.00
2019-03-26T04:54:02.068Z,35.00
2019-03-26T04:57:18.001Z,34.90
2019-03-26T05:00:36.730Z,35.00
2019-03-26T05:03:52.789Z,34.80
2019-03-26T05:07:08.155Z,35.00
2019-03-26T05:10:23.900Z,34.80
2019-03-26T05:13:39.985Z,35.00
2019-03-26T05:16:55.847Z,35.00
2019-03-26T05:20:11.478Z,34.80
2019-03-26T05:23:26.757Z,34.90
2019-03-26T05:26:40.361Z,35.00
2019-03-26T05:30:03.299Z,34.80
2019-03-26T05:33:16.941Z,35.00
2019-03-26T05:36:50.729Z,35.00
2019-03-26T05:39:56.565Z,35.00
2019-03-26T05:43:12.608Z,35.00
2019-03-26T05:46:28.256Z,34.80
2019-03-26T05:49:43.990Z,35.00
2019-03-26T05:52:59.279Z,34.90
2019-03-26T05:56:17.125Z,35.00
2019-03-26T05:59:32.749Z,34.80
2019-03-26T06:02:48.747Z,34.80
2019-03-26T06:06:03.957Z,34.80
2019-03-26T06:09:19.796Z,34.80
2019-03-26T06:12:35.833Z,35.00
2019-03-26T06:15:51.579Z,35.00
2019-03-26T06:19:06.805Z,35.00
2019-03-26T06:22:22.002Z,35.00
2019-03-26T06:25:37.305Z,34.80
2019-03-26T06:28:53.270Z,35.00
2019-03-26T06:32:09.320Z,35.10
2019-03-26T06:35:25.137Z,35.00
2019-03-26T06:38:41.156Z,35.00
2019-03-26T06:41:56.899Z,34.80
2019-03-26T06:45:10.733Z,34.80
2019-03-26T06:48:26.002Z,35.00
2019-03-26T06:51:41.841Z,34.90
2019-03-26T06:54:57.073Z,35.00
2019-03-26T06:58:12.959Z,34.80
2019-03-26T07:01:28.917Z,34.90
2019-03-26T07:04:44.775Z,35.00
2019-03-26T07:08:00.834Z,34.80
2019-03-26T07:11:16.528Z,34.80
2019-03-26T07:14:34.936Z,34.80
2019-03-26T07:17:52.483Z,35.10
2019-03-26T07:21:08.740Z,34.80
2019-03-26T07:24:24.849Z,34.80
2019-03-26T07:27:40.929Z,34.90
2019-03-26T07:30:56.759Z,35.30
2019-03-26T07:34:12.816Z,34.90
2019-03-26T07:37:26.353Z,34.80
2019-03-26T07:40:49.047Z,34.90
2019-03-26T07:44:04.686Z,34.80
2019-03-26T07:47:20.884Z,35.00
2019-03-26T07:53:54.480Z,34.70
2019-03-26T07:57:09.699Z,34.60
2019-03-26T08:00:25.607Z,34.70
2019-03-26T08:03:41.349Z,34.50
2019-03-26T08:06:57.122Z,34.40
2019-03-26T08:10:13.118Z,34.50
2019-03-26T08:13:28.896Z,34.50
2019-03-26T08:16:44.089Z,34.40
2019-03-26T08:19:59.877Z,34.30
2019-03-26T08:23:15.881Z,34.50
2019-03-26T08:26:31.633Z,34.40
2019-03-26T08:29:46.884Z,34.50
2019-03-26T08:33:02.989Z,34.50
2019-03-26T08:36:18.999Z,34.40
2019-03-26T08:39:34.732Z,34.40
2019-03-26T08:42:50.092Z,34.40
2019-03-26T08:46:06.057Z,34.50
2019-03-26T08:49:21.317Z,34.50
2019-03-26T08:52:36.516Z,34.50
2019-03-26T08:55:51.798Z,34.40
2019-03-26T08:59:07.820Z,34.40
2019-03-26T09:02:23.797Z,34.60
2019-03-26T09:05:39.731Z,34.60
2019-03-26T09:08:55.513Z,34.60
2019-03-26T09:12:11.532Z,34.30
2019-03-26T09:15:27.468Z,34.50
2019-03-26T09:18:43.640Z,34.40
2019-03-26T09:21:59.150Z,34.10
2019-03-26T09:25:15.151Z,34.40
2019-03-26T09:28:28.721Z,34.20
2019-03-26T09:31:51.455Z,34.40
2019-03-26T09:35:07.620Z,34.00
2019-03-26T09:38:22.869Z,34.00
2019-03-26T09:41:26.120Z,34.20
2019-03-26T09:44:48.795Z,33.70
2019-03-26T09:48:11.472Z,34.30
2019-03-26T09:51:14.719Z,33.90
2019-03-26T09:54:37.407Z,34.10
2019-03-26T09:58:00.071Z,33.80
2019-03-26T10:04:40.190Z,33.90
2019-03-26T10:07:55.475Z,33.90
2019-03-26T10:11:09.137Z,33.90
2019-03-26T10:14:31.825Z,34.10
2019-03-26T10:17:54.502Z,34.00
2019-03-26T10:21:17.186Z,34.10
2019-03-26T10:24:33.327Z,34.20
2019-03-26T10:27:48.532Z,34.00
2019-03-26T10:31:04.642Z,34.20
2019-03-26T10:34:18.295Z,34.00
2019-03-26T10:37:40.960Z,34.20
2019-03-26T10:40:56.800Z,34.00
2019-03-26T10:44:12.276Z,34.20
2019-03-26T10:47:28.093Z,34.00
2019-03-26T10:50:43.868Z,34.00
2019-03-26T10:53:59.762Z,33.90
2019-03-26T10:57:13.284Z,33.90
2019-03-26T11:00:35.977Z,33.90
2019-03-26T11:03:51.876Z,33.90
2019-03-26T11:07:07.813Z,33.80
2019-03-26T11:10:23.767Z,33.40
2019-03-26T11:13:39.730Z,33.60
2019-03-26T11:16:55.664Z,33.70
2019-03-26T11:20:11.470Z,33.70
2019-03-26T11:23:26.853Z,34.10
2019-03-26T11:26:42.914Z,33.60
2019-03-26T11:29:58.933Z,33.50
2019-03-26T11:33:14.811Z,33.90
2019-03-26T11:36:29.955Z,33.80
2019-03-26T11:39:45.261Z,33.50
2019-03-26T11:43:00.440Z,33.50
2019-03-26T11:46:14.024Z,33.80
2019-03-26T11:49:36.710Z,33.80
2019-03-26T11:52:52.364Z,33.50
2019-03-26T11:56:15.268Z,33.50
2019-03-26T11:59:30.422Z,33.40
2019-03-26T12:02:46.361Z,33.50
2019-03-26T12:06:02.277Z,33.50
2019-03-26T12:09:17.912Z,33.20
2019-03-26T12:12:33.181Z,33.40
2019-03-26T12:15:49.110Z,33.20
2019-03-26T12:22:22.479Z,32.90
2019-03-26T12:25:36.090Z,32.90
2019-03-26T12:28:58.753Z,32.70
2019-03-26T12:32:14.773Z,32.90
2019-03-26T12:35:30.784Z,32.70
2019-03-26T12:38:46.490Z,32.60
2019-03-26T12:42:02.623Z,32.70
2019-03-26T12:45:18.628Z,33.00
2019-03-26T12:48:34.486Z,33.10
2019-03-26T12:51:49.730Z,32.80
2019-03-26T12:55:05.664Z,33.00
2019-03-26T12:58:31.095Z,32.70
2019-03-26T13:01:38.532Z,32.80
2019-03-26T13:04:53.740Z,32.50
2019-03-26T13:08:09.539Z,32.80
2019-03-26T13:11:25.414Z,32.60
2019-03-26T13:14:40.561Z,32.80
2019-03-26T13:17:56.324Z,32.80
2019-03-26T13:21:12.222Z,32.90
2019-03-26T13:24:29.068Z,32.70
2019-03-26T13:27:45.142Z,32.90
2019-03-26T13:31:00.965Z,32.90
2019-03-26T13:34:16.524Z,32.90
2019-03-26T13:37:31.906Z,33.00
2019-03-26T13:40:47.236Z,33.10
2019-03-26T13:44:03.165Z,32.90
2019-03-26T13:47:18.909Z,33.10
2019-03-26T13:50:34.267Z,32.80
2019-03-26T13:53:50.168Z,32.70
2019-03-26T13:57:05.352Z,32.90
2019-03-26T14:00:21.233Z,32.70
2019-03-26T14:03:34.850Z,32.50
2019-03-26T14:06:57.538Z,33.10
2019-03-26T14:10:13.558Z,32.70
2019-03-26T14:13:29.401Z,32.70
2019-03-26T14:16:44.625Z,32.70
2019-03-26T14:20:00.497Z,32.90
2019-03-26T14:23:16.352Z,32.90
2019-03-26T14:26:32.391Z,32.80
2019-03-26T14:29:48.498Z,32.80
2019-03-26T14:33:04.561Z,32.70
2019-03-26T14:36:20.446Z,32.80
2019-03-26T14:39:36.524Z,32.90
2019-03-26T14:42:52.314Z,32.80
2019-03-26T14:46:08.096Z,32.50
2019-03-26T14:49:25.257Z,32.40
2019-03-26T14:52:40.738Z,32.50
2019-03-26T14:55:56.772Z,32.40
2019-03-26T14:59:12.803Z,32.80
2019-03-26T15:02:28.619Z,33.00
2019-03-26T15:05:43.894Z,32.80
2019-03-26T15:08:57.513Z,32.90
2019-03-26T15:12:20.188Z,33.10
2019-03-26T15:15:36.709Z,33.00
2019-03-26T15:18:52.492Z,33.20
2019-03-26T15:22:08.261Z,33.00
2019-03-26T15:25:24.441Z,32.80
2019-03-26T15:28:40.291Z,32.70
2019-03-26T15:31:55.529Z,32.80
2019-03-26T15:35:11.498Z,32.70
2019-03-26T15:38:27.247Z,32.90
2019-03-26T15:41:42.904Z,33.00
2019-03-26T15:44:58.762Z,32.50
2019-03-26T15:48:14.724Z,33.20
2019-03-26T15:51:30.624Z,32.90
2019-03-26T15:54:45.929Z,32.80
2019-03-26T15:58:01.796Z,32.70
2019-03-26T16:01:17.665Z,32.80
2019-03-26T16:04:33.701Z,32.70
2019-03-26T16:07:49.725Z,32.90
2019-03-26T16:11:05.857Z,32.90
2019-03-26T16:14:21.872Z,32.80
2019-03-26T16:17:37.688Z,33.00
2019-03-26T16:20:53.451Z,33.50
2019-03-26T16:24:09.084Z,33.10
2019-03-26T16:27:25.156Z,33.10
2019-03-26T16:30:41.125Z,32.90
2019-03-26T16:33:57.153Z,33.00
2019-03-26T16:37:12.415Z,33.00
2019-03-26T16:40:25.968Z,33.10
2019-03-26T16:43:41.668Z,33.10
2019-03-26T16:46:57.697Z,32.80
2019-03-26T16:50:13.606Z,33.00
2019-03-26T16:53:28.824Z,32.90
2019-03-26T16:56:44.459Z,32.90
2019-03-26T17:00:00.548Z,33.00
2019-03-26T17:03:30.448Z,32.80
2019-03-26T17:06:34.372Z,32.70
2019-03-26T17:09:50.468Z,33.00
2019-03-26T17:13:05.729Z,32.70
2019-03-26T17:16:21.757Z,33.10
2019-03-26T17:19:35.396Z,32.70
2019-03-26T17:22:58.103Z,32.60
2019-03-26T17:26:15.432Z,32.80
2019-03-26T17:29:31.238Z,32.90
2019-03-26T17:32:47.342Z,32.80
2019-03-26T17:36:02.636Z,32.60
2019-03-26T17:39:17.917Z,32.90
2019-03-26T17:42:33.533Z,32.80
2019-03-26T17:45:49.284Z,32.70
2019-03-26T17:49:05.016Z,32.80
2019-03-26T17:52:20.895Z,32.80
2019-03-26T17:55:36.118Z,33.00
2019-03-26T17:58:51.385Z,33.00
2019-03-26T18:02:07.284Z,32.90
2019-03-26T18:05:23.434Z,33.20
2019-03-26T18:08:37.030Z,33.10
2019-03-26T18:11:59.691Z,33.20
2019-03-26T18:15:15.501Z,33.00
2019-03-26T18:18:31.465Z,33.10
2019-03-26T18:21:51.787Z,33.30
2019-03-26T18:25:05.070Z,33.40
2019-03-26T18:28:20.496Z,33.20
2019-03-26T18:31:36.395Z,33.40
2019-03-26T18:34:52.194Z,33.50
2019-03-26T18:38:07.957Z,33.40
2019-03-26T18:41:23.876Z,33.40
2019-03-26T18:44:39.100Z,33.40
2019-03-26T18:47:54.985Z,33.20
2019-03-26T18:51:10.989Z,33.30
2019-03-26T18:54:26.323Z,33.50
2019-03-26T18:57:41.686Z,33.50
2019-03-26T19:00:57.603Z,33.50
2019-03-26T19:04:13.572Z,33.50
2019-03-26T19:07:29.222Z,33.30
2019-03-26T19:10:45.226Z,33.50
2019-03-26T19:14:01.272Z,33.40
2019-03-26T19:17:17.044Z,33.50
2019-03-26T19:20:33.173Z,33.50
2019-03-26T19:23:48.934Z,33.50
2019-03-26T19:27:04.636Z,33.40
2019-03-26T19:30:20.601Z,33.40
2019-03-26T19:33:36.545Z,33.60
2019-03-26T19:36:51.828Z,33.60
2019-03-26T19:40:07.050Z,33.40
2019-03-26T19:43:20.684Z,33.60
2019-03-26T19:50:20.173Z,33.50
2019-03-26T19:53:33.773Z,33.50
2019-03-26T19:56:56.453Z,33.70
2019-03-26T20:03:45.816Z,33.80
2019-03-26T20:07:00.971Z,33.50
2019-03-26T20:10:16.216Z,33.60
2019-03-26T20:13:31.463Z,33.70
2019-03-26T20:16:46.787Z,33.60
2019-03-26T20:20:00.405Z,33.60
2019-03-26T20:23:23.104Z,33.80
2019-03-26T20:26:38.477Z,33.70
2019-03-26T20:29:54.589Z,33.70
2019-03-26T20:33:10.504Z,33.80
2019-03-26T20:36:26.661Z,33.70
2019-03-26T20:39:42.021Z,33.70
2019-03-26T20:42:58.003Z,33.90
2019-03-26T20:46:13.989Z,33.90
2019-03-26T20:49:29.641Z,33.90
2019-03-26T20:52:44.848Z,34.00
2019-03-26T20:56:00.784Z,33.70
2019-03-26T20:59:16.531Z,34.40
2019-03-26T21:02:32.263Z,34.00
2019-03-26T21:05:47.553Z,34.00
2019-03-26T21:09:04.373Z,34.00
2019-03-26T21:12:19.989Z,33.80
2019-03-26T21:15:35.931Z,34.40
2019-03-26T21:18:51.828Z,33.80
2019-03-26T21:22:07.524Z,33.50
2019-03-26T21:25:23.604Z,34.00
2019-03-26T21:28:39.566Z,33.80
2019-03-26T21:31:55.672Z,34.00
2019-03-26T21:35:10.975Z,33.90
2019-03-26T21:38:26.723Z,34.00
2019-03-26T21:41:42.669Z,34.00
2019-03-26T21:44:58.308Z,33.90
2019-03-26T21:52:09.716Z,34.10
2019-03-26T21:55:25.568Z,33.90
2019-03-26T21:58:41.637Z,34.10
2019-03-26T22:01:57.476Z,33.90
2019-03-26T22:05:12.705Z,34.00
2019-03-26T22:08:28.289Z,34.00
2019-03-26T22:11:49.741Z,33.80
2019-03-26T22:15:01.336Z,33.80
2019-03-26T22:18:17.330Z,33.80
2019-03-26T22:21:33.258Z,33.70
2019-03-26T22:24:48.400Z,33.80
2019-03-26T22:28:04.176Z,34.00
2019-03-26T22:31:20.035Z,34.00
2019-03-26T22:34:35.265Z,34.00
2019-03-26T22:37:50.573Z,33.90
2019-03-26T22:41:06.561Z,33.70
2019-03-26T22:44:31.369Z,34.00
2019-03-26T22:47:40.124Z,33.80
2019-03-26T22:50:55.346Z,33.80
2019-03-26T22:54:11.430Z,33.80
2019-03-26T22:57:27.345Z,33.80
2019-03-26T23:00:43.318Z,33.80
2019-03-26T23:03:58.595Z,34.10
2019-03-26T23:07:14.409Z,33.30
2019-03-26T23:10:30.236Z,33.80
2019-03-26T23:13:46.131Z,33.90
2019-03-26T23:17:01.757Z,33.80
2019-03-26T23:20:17.664Z,33.80
2019-03-26T23:23:31.322Z,33.90
2019-03-26T23:26:46.742Z,34.10
2019-03-26T23:30:01.937Z,34.50
2019-03-26T23:33:18.056Z,34.10
2019-03-26T23:36:33.242Z,34.10
2019-03-26T23:39:49.241Z,34.00
2019-03-26T23:43:05.204Z,34.00
2019-03-26T23:46:20.486Z,34.10
2019-03-26T23:49:36.420Z,34.00
2019-03-26T23:52:52.447Z,34.10
2019-03-26T23:56:08.251Z,34.10
2019-03-26T23:59:24.155Z,34.20
